Latest Weather Observations for Naracoorte

IDS60801

Issued at 6:51 am CDT Wednesday 24 October 2018 (issued every 10 minutes, with the page automatically refreshed every 10 minutes)

About weather observations | Map of weather stations | Latest weather observations for SA | Other Formats
Station Details ID: 026099 Name: NARACOORTE AERODROME Lat: -36.98 Lon: 140.73 Height: 49.72 m
Data from the previous 72 hours. | See also: Recent months at Naracoorte
Date/Time
CDT
Temp
°C
App
Temp
°C
Dew
Point
°C
Rel
Hum
%
Delta-T
°C
Wind Press
QNH
hPa
Press
MSL
hPa
Rain since
9am
mm
Dir  Spd
km/h
Gust
km/h
Spd
kts
Gust
kts
24/06:30am 2.5 -0.3 1.8 95 0.3 NNW 6 7 3 4 1024.1 1024.1 0.2
24/06:00am 2.6 -0.8 1.9 95 0.3 NNW 9 13 5 7 1023.7 1023.7 0.2
24/05:30am 2.1 0.3 1.2 94 0.3 CALM 0 0 0 0 1023.3 1023.3 0.2
24/05:00am 3.0 1.4 2.4 96 0.2 CALM 0 4 0 2 1023.1 1023.1 0.2
24/04:30am 1.5 -1.7 0.6 94 0.3 SSE 7 9 4 5 1022.8 1022.8 0.2
24/04:00am 2.1 -0.8 1.2 94 0.3 SSE 6 7 3 4 1022.9 1022.9 0.2
24/03:30am 2.0 -0.6 0.8 92 0.4 SSE 4 9 2 5 1022.8 1022.8 0.2
24/03:00am 3.9 2.3 2.6 91 0.5 CALM 0 0 0 0 1022.8 1022.8 0.2
24/02:30am 3.1 0.1 1.9 92 0.5 SE 7 9 4 5 1022.6 1022.6 0.2
24/02:00am 4.4 1.7 2.9 90 0.6 SE 6 7 3 4 1022.7 1022.7 0.2
24/01:30am 4.4 1.3 3.4 93 0.4 SE 9 11 5 6 1022.7 1022.7 0.2
24/01:00am 3.4 0.0 2.1 91 0.5 SE 9 11 5 6 1022.9 1022.9 0.2
24/12:30am 4.0 0.8 2.8 92 0.5 SE 9 9 5 5 1022.9 1022.9 0.2
24/12:00am 4.1 1.3 2.9 92 0.5 SE 7 9 4 5 1022.9 1022.9 0.2
 
Date/Time
CDT
Temp
°C
App
Temp
°C
Dew
Point
°C
Rel
Hum
%
Delta-T
°C
Wind Press
QNH
hPa
Press
MSL
hPa
Rain since
9am
mm
Dir  Spd
km/h
Gust
km/h
Spd
kts
Gust
kts
23/11:30pm 4.8 2.0 3.3 90 0.6 SE 7 7 4 4 1023.0 1023.0 0.2
23/11:00pm 5.5 3.0 4.0 90 0.6 SE 6 6 3 3 1023.1 1023.1 0.2
23/10:30pm 5.4 2.3 3.7 89 0.7 SSE 9 11 5 6 1023.0 1023.0 0.2
23/10:00pm 5.4 2.7 3.7 89 0.7 SSE 7 11 4 6 1022.9 1022.9 0.2
23/09:30pm 5.7 2.3 4.0 89 0.7 SSW 11 13 6 7 1022.7 1022.7 0.2
23/09:00pm 5.9 2.1 4.1 88 0.8 SW 13 13 7 7 1022.5 1022.5 0.2
23/08:30pm 6.8 3.5 4.5 85 1.0 SSW 11 15 6 8 1022.0 1022.0 0.2
23/08:00pm 8.3 4.7 5.1 80 1.4 SSW 13 15 7 8 1021.5 1021.5 0.2
23/07:30pm 10.8 5.9 5.1 68 2.6 SSW 20 41 11 22 1021.0 1021.0 0.2
23/07:00pm 11.6 7.1 6.3 70 2.5 SSW 19 24 10 13 1020.3 1020.3 0.2
23/06:30pm 13.3 8.5 5.7 60 3.6 SW 20 28 11 15 1019.6 1019.6 0.2
23/06:00pm 14.2 7.9 3.9 50 4.7 SW 26 33 14 18 1019.4 1019.4 0.2
23/05:30pm 13.4 7.6 4.6 55 4.0 SW 24 28 13 15 1019.2 1019.2 0.2
23/05:00pm 13.9 7.4 4.8 54 4.2 SW 28 35 15 19 1018.8 1018.8 0.2
23/04:30pm 14.1 6.8 4.7 53 4.4 SW 32 43 17 23 1018.5 1018.4 0.2
23/04:00pm 14.4 7.0 4.1 50 4.7 WSW 32 46 17 25 1018.2 1018.1 0.2
23/03:30pm 15.0 7.9 6.3 56 4.2 SW 33 43 18 23 1018.0 1017.9 0.2
23/03:00pm 17.0 10.6 7.1 52 4.9 WSW 30 37 16 20 1017.4 1017.3 0.2
23/02:30pm 16.7 10.0 7.4 54 4.6 WSW 32 43 17 23 1017.5 1017.4 0.2
23/02:00pm 16.3 9.0 4.7 46 5.5 WSW 32 43 17 23 1017.2 1017.1 0.2
23/01:30pm 16.9 9.9 6.7 51 5.0 WSW 33 43 18 23 1017.3 1017.2 0.2
23/01:00pm 16.5 10.0 6.6 52 4.9 WSW 30 39 16 21 1017.1 1017.0 0.2
23/12:36pm 16.4 9.2 4.8 46 5.5 WSW 32 50 17 27 1016.9 1016.8 0.2
23/12:30pm 15.5 8.3 4.8 49 5.0 WSW 32 41 17 22 1017.0 1016.9 0.2
23/12:00pm 14.8 8.2 6.1 56 4.2 SW 30 39 16 21 1017.0 1016.9 0.2
23/11:30am 16.3 10.6 8.5 60 4.0 WSW 28 41 15 22 1017.0 1016.9 0.0
23/11:00am 14.5 8.5 7.1 61 3.6 WSW 28 37 15 20 1017.0 1016.9 0.0
23/10:30am 14.4 10.7 9.4 72 2.6 WSW 19 28 10 15 1016.7 1016.7 0.0
23/10:00am 13.1 8.8 9.4 78 1.9 SW 22 30 12 16 1016.6 1016.6 0.0
23/09:33am 12.1 6.1 7.2 72 2.4 WSW 28 46 15 25 1016.5 1016.5 0.0
23/09:30am 13.4 8.3 7.6 68 2.8 WSW 24 46 13 25 1016.4 1016.4 0.0
23/09:00am 13.5 9.3 8.4 71 2.5 WSW 20 30 11 16 1016.0 1016.0 0.0
23/08:30am 12.8 8.1 9.3 79 1.8 WSW 24 28 13 15 1015.8 1015.8 0.0
23/08:00am 11.9 8.2 9.6 86 1.2 WSW 19 22 10 12 1015.5 1015.5 0.0
23/07:30am 10.6 8.1 9.7 94 0.5 W 13 15 7 8 1015.0 1015.0 0.0
23/07:00am 9.1 6.6 8.3 95 0.4 W 11 13 6 7 1014.5 1014.5 0.0
23/06:30am 8.5 4.7 7.6 94 0.4 W 17 19 9 10 1014.2 1014.2 0.0
23/06:00am 8.2 5.1 7.1 93 0.5 W 13 15 7 8 1013.6 1013.6 0.0
23/05:30am 9.0 6.4 7.9 93 0.5 W 11 13 6 7 1013.2 1013.2 0.0
23/05:00am 10.2 7.5 9.1 93 0.5 W 13 15 7 8 1013.0 1013.0 0.0
23/04:30am 10.7 7.8 9.6 93 0.6 W 15 19 8 10 1012.6 1012.6 0.0
23/04:00am 10.9 8.8 9.8 93 0.6 WSW 11 15 6 8 1012.2 1012.2 0.0
23/03:30am 10.9 9.5 9.7 92 0.6 WSW 7 11 4 6 1012.4 1012.4 0.0
23/03:00am 11.4 8.2 10.1 92 0.7 SW 17 19 9 10 1012.3 1012.3 0.0
23/02:30am 12.0 9.8 10.7 92 0.7 W 13 15 7 8 1012.8 1012.8 0.0
23/02:00am 11.7 9.4 10.6 93 0.6 SW 13 17 7 9 1012.3 1012.3 0.0
23/01:30am 11.4 9.8 10.3 93 0.6 WSW 9 13 5 7 1011.9 1011.9 0.0
23/01:00am 11.4 9.1 10.3 93 0.6 SW 13 15 7 8 1012.4 1012.4 0.0
23/12:30am 11.4 9.4 10.1 92 0.7 SW 11 15 6 8 1012.0 1012.0 0.0
23/12:00am 11.7 11.1 10.3 91 0.7 SSW 4 9 2 5 1012.6 1012.6 0.0
 
Date/Time
CDT
Temp
°C
App
Temp
°C
Dew
Point
°C
Rel
Hum
%
Delta-T
°C
Wind Press
QNH
hPa
Press
MSL
hPa
Rain since
9am
mm
Dir  Spd
km/h
Gust
km/h
Spd
kts
Gust
kts
22/11:30pm 12.1 12.3 10.5 90 0.8 CALM 0 0 0 0 1013.1 1013.1 0.0
22/11:00pm 11.4 10.2 9.7 89 0.9 S 6 9 3 5 1012.7 1012.7 0.0
22/10:30pm 12.6 12.8 10.7 88 1.0 CALM 0 6 0 3 1012.9 1012.9 0.0
22/10:00pm 12.4 10.5 10.5 88 1.0 SSW 11 13 6 7 1012.4 1012.4 0.0
22/09:30pm 12.6 10.3 10.3 86 1.2 SSW 13 17 7 9 1011.8 1011.8 0.0
22/09:00pm 13.3 10.1 9.9 80 1.8 SSW 17 22 9 12 1011.7 1011.7 0.0
22/08:30pm 13.8 10.2 9.8 77 2.1 SW 19 20 10 11 1011.5 1011.5 0.0
22/08:00pm 14.5 11.0 10.3 76 2.2 SSW 19 26 10 14 1011.2 1011.2 0.0
22/07:30pm 15.3 10.2 10.7 74 2.4 SW 28 37 15 20 1010.8 1010.8 0.0
22/07:00pm 15.9 11.8 11.3 74 2.5 SW 24 28 13 15 1010.3 1010.3 0.0
22/06:30pm 16.6 13.4 11.1 70 3.0 SW 19 24 10 13 1010.0 1010.0 0.0
22/06:00pm 17.6 12.7 10.0 61 4.0 WSW 26 33 14 18 1009.7 1009.7 0.0
22/05:30pm 20.3 14.3 8.6 47 6.1 WSW 30 41 16 22 1009.5 1009.5 0.0
22/05:00pm 21.8 15.9 10.3 48 6.3 WSW 32 41 17 22 1009.2 1009.2 0.0
22/04:30pm 23.0 16.5 9.0 41 7.5 W 33 39 18 21 1009.0 1009.0 0.0
22/04:00pm 24.0 18.3 11.0 44 7.3 W 32 37 17 20 1008.8 1008.8 0.0
22/03:30pm 24.7 20.2 10.2 40 8.0 WNW 24 35 13 19 1008.7 1008.7 0.0
22/03:00pm 24.4 20.0 8.8 37 8.4 NW 22 32 12 17 1008.5 1008.5 0.0
22/02:30pm 23.9 19.5 7.5 35 8.6 NW 20 26 11 14 1009.1 1009.1 0.0
22/02:00pm 24.3 20.4 9.5 39 8.1 WNW 20 28 11 15 1009.5 1009.5 0.0
22/01:30pm 23.6 18.5 7.7 36 8.4 NW 24 32 13 17 1009.7 1009.7 0.0
22/01:00pm 23.1 17.4 6.8 35 8.4 WNW 26 37 14 20 1010.1 1010.1 0.0
22/12:30pm 24.1 17.6 10.4 42 7.6 WNW 35 44 19 24 1010.2 1010.2 0.0
22/12:00pm 24.1 16.7 6.8 33 9.0 NW 35 48 19 26 1010.2 1010.2 0.0
22/11:30am 24.2 18.3 7.4 34 8.8 NW 28 41 15 22 1010.4 1010.4 0.0
22/11:00am 23.7 18.6 7.8 36 8.4 NNW 24 33 13 18 1010.2 1010.2 0.0
22/10:30am 22.1 16.7 6.3 36 8.0 NNW 24 37 13 20 1010.5 1010.5 0.0
22/10:00am 21.9 16.6 6.6 37 7.8 N 24 35 13 19 1010.8 1010.8 0.0
22/09:30am 20.5 15.0 6.1 39 7.2 N 24 32 13 17 1010.8 1010.8 0.0
22/09:00am 19.0 13.5 5.8 42 6.5 N 24 37 13 20 1010.8 1010.8 0.0
22/08:30am 18.0 12.5 5.9 45 5.9 N 24 37 13 20 1010.9 1010.9 0.0
22/08:00am 16.7 11.3 4.7 45 5.7 N 22 32 12 17 1010.8 1010.8 0.0
22/07:30am 14.4 10.2 5.5 55 4.2 NNE 17 22 9 12 1010.6 1010.6 0.0
22/07:00am 12.0 8.1 5.2 63 3.1 NNE 15 17 8 9 1010.7 1010.7 0.0
22/06:30am 11.9 8.3 5.1 63 3.1 N 13 22 7 12 1010.7 1010.7 0.0
22/06:00am 12.3 6.7 5.2 62 3.3 NNE 24 33 13 18 1010.3 1010.3 0.0
22/05:30am 12.3 6.7 5.5 63 3.2 NNE 24 30 13 16 1010.3 1010.3 0.0
22/05:00am 12.4 6.9 5.8 64 3.1 NNE 24 33 13 18 1010.6 1010.6 0.0
22/04:30am 12.1 6.7 6.2 67 2.8 NNE 24 30 13 16 1011.0 1011.0 0.0
22/04:00am 12.3 6.6 6.6 68 2.7 NNE 26 33 14 18 1011.0 1011.0 0.0
22/03:30am 12.3 7.0 7.0 70 2.6 NE 24 30 13 16 1011.3 1011.3 0.0
22/03:00am 11.9 7.1 7.4 74 2.2 NE 22 28 12 15 1011.6 1011.6 0.0
22/02:30am 11.7 7.0 7.8 77 1.9 NE 22 30 12 16 1011.9 1011.9 0.0
22/02:00am 11.7 7.4 8.0 78 1.8 NE 20 26 11 14 1012.2 1012.2 0.0
22/01:30am 11.6 7.6 8.3 80 1.6 NE 19 22 10 12 1012.8 1012.8 0.0
22/01:00am 11.8 8.2 8.3 79 1.7 NE 17 22 9 12 1013.1 1013.1 0.0
22/12:30am 11.4 8.1 8.1 80 1.6 NE 15 17 8 9 1013.6 1013.6 0.0
22/12:00am 11.5 8.7 8.4 81 1.5 NE 13 17 7 9 1013.7 1013.7 0.0
 
Date/Time
CDT
Temp
°C
App
Temp
°C
Dew
Point
°C
Rel
Hum
%
Delta-T
°C
Wind Press
QNH
hPa
Press
MSL
hPa
Rain since
9am
mm
Dir  Spd
km/h
Gust
km/h
Spd
kts
Gust
kts
21/11:30pm 12.2 10.3 8.9 80 1.7 NE 9 13 5 7 1014.0 1014.0 0.0
21/11:00pm 12.0 8.5 8.8 81 1.6 NE 17 20 9 11 1014.3 1014.3 0.0
21/10:30pm 11.9 9.5 8.7 81 1.6 ENE 11 15 6 8 1014.8 1014.8 0.0
21/10:00pm 11.8 9.3 8.1 78 1.8 ENE 11 15 6 8 1015.2 1015.2 0.0
21/09:30pm 11.9 9.9 8.7 81 1.6 ENE 9 11 5 6 1015.2 1015.2 0.0
21/09:00pm 12.1 10.6 9.3 83 1.4 E 7 9 4 5 1015.2 1015.2 0.0
21/08:30pm 12.2 10.3 9.0 81 1.6 E 9 11 5 6 1015.3 1015.3 0.0
21/08:00pm 13.0 11.5 9.3 78 1.9 ESE 7 7 4 4 1015.4 1015.4 0.0
21/07:30pm 15.6 14.6 10.2 70 2.8 SE 6 7 3 4 1015.5 1015.5 0.0
21/07:00pm 17.8 18.0 10.4 62 4.0 CALM 0 0 0 0 1015.5 1015.5 0.0
21/06:30pm 18.6 17.9 9.9 57 4.6 SSW 4 9 2 5 1015.4 1015.4 0.0
21/06:00pm 19.1 17.6 9.0 52 5.3 W 7 11 4 6 1015.4 1015.4 0.0
21/05:30pm 18.4 16.9 9.2 55 4.8 N 7 13 4 7 1015.5 1015.5 0.0
21/05:00pm 18.9 17.4 9.1 53 5.1 WNW 7 13 4 7 1015.8 1015.8 0.0
21/04:30pm 18.7 17.1 8.7 52 5.2 NNW 7 15 4 8 1015.9 1015.9 0.0
21/04:00pm 17.8 16.3 8.4 54 4.8 NNW 6 13 3 7 1016.2 1016.2 0.0
21/03:30pm 17.7 15.7 8.6 55 4.7 N 9 13 5 7 1016.7 1016.7 0.0
21/03:00pm 18.1 16.4 11.2 64 3.7 NNW 11 15 6 8 1017.2 1017.1 0.0
21/02:30pm 17.7 15.8 9.1 57 4.5 NW 9 15 5 8 1017.7 1017.6 0.0
21/02:00pm 17.5 15.3 9.4 59 4.2 NNW 11 17 6 9 1018.4 1018.3 0.0
21/01:30pm 17.0 13.7 8.2 56 4.5 NW 15 20 8 11 1018.7 1018.6 0.0
21/01:00pm 17.6 15.0 9.5 59 4.3 WNW 13 17 7 9 1019.1 1019.1 0.0
21/12:30pm 17.0 14.8 9.2 60 4.0 WNW 11 24 6 13 1019.5 1019.5 0.0
21/12:00pm 16.7 14.0 8.9 60 4.0 NNW 13 20 7 11 1019.9 1019.9 0.0
21/11:30am 16.3 13.3 7.8 57 4.3 NW 13 17 7 9 1020.4 1020.4 0.0
21/11:00am 15.6 13.4 9.3 66 3.3 NNW 11 17 6 9 1020.7 1020.7 0.0
21/10:30am 15.3 12.9 9.9 70 2.8 NW 13 20 7 11 1020.9 1020.9 0.0
21/10:00am 14.1 11.4 10.3 78 2.0 WNW 15 20 8 11 1021.1 1021.1 0.0
21/09:30am 13.2 10.8 10.2 82 1.5 NNW 13 17 7 9 1021.1 1021.1 0.0
21/09:00am 12.6 10.4 10.8 89 0.9 NNW 13 15 7 8 1021.1 1021.1 0.0
21/08:30am 11.3 9.3 10.2 93 0.6 NNW 11 13 6 7 1021.2 1021.2 0.0
21/08:00am 9.8 7.1 9.0 95 0.4 NNW 13 15 7 8 1021.0 1021.0 0.0
21/07:30am 8.1 6.2 7.5 96 0.3 NNW 7 11 4 6 1020.8 1020.8 0.0
21/07:00am 6.3 5.3 5.7 96 0.3 CALM 0 0 0 0 1020.6 1020.6 0.0

Other Formats:

Comma delimited format used in spreadsheet applications
http://www.bom.gov.au/fwo/IDS60801/IDS60801.94820.axf

JavaScript Object Notation format (JSON) in row-major order
http://www.bom.gov.au/fwo/IDS60801/IDS60801.94820.json